Time;durP1;ratioP1;P1;durP2;ratioP2;P2;SDS_P1;SDS_P2;PMS_P1;PMS_P2;Temp;Humidity;BMP_temperature;BMP_pressure;BME280_temperature;BME280_humidity;BME280_pressure;Samples;Min_cycle;Max_cycle;Signal;HPM_P1;HPM_P2
2022/03/02 00:01:12;;;;;;;15.67;10.60;;;;;;;1.22;57.98;151681.63;5051052;28;20849;-79
2022/03/02 00:03:48;;;;;;;15.10;10.17;;;;;;;1.21;57.54;151680.41;5064289;28;20445;-80
2022/03/02 00:06:23;;;;;;;13.40;9.97;;;;;;;1.23;58.22;151685.53;5052465;28;20466;-79
2022/03/02 00:08:59;;;;;;;14.30;11.10;;;;;;;1.22;57.28;151681.63;5065479;28;20508;-79
2022/03/02 00:11:35;;;;;;;16.50;10.37;;;;;;;1.12;58.45;151655.97;5065988;28;20485;-79
2022/03/02 00:14:10;;;;;;;14.20;10.73;;;;;;;0.98;61.58;151621.28;5067872;28;20470;-79
2022/03/02 00:16:48;;;;;;;16.60;11.33;;;;;;;0.86;63.11;151589.19;5069840;28;20794;-80
2022/03/02 00:19:23;;;;;;;15.00;11.97;;;;;;;0.76;63.61;151564.81;5062798;28;20442;-80
2022/03/02 00:21:59;;;;;;;14.83;11.63;;;;;;;0.68;61.71;151544.25;5066945;28;20458;-79
2022/03/02 00:24:35;;;;;;;15.53;10.93;;;;;;;0.86;59.91;151590.47;5066114;28;20541;-80
2022/03/02 00:27:10;;;;;;;15.10;11.23;;;;;;;1.01;59.02;151628.97;5066383;28;20945;-80
2022/03/02 00:29:47;;;;;;;13.77;10.27;;;;;;;1.21;57.88;151680.41;5068283;28;20471;-79
2022/03/02 00:32:25;;;;;;;13.40;10.77;;;;;;;1.08;58.78;151647.00;5080393;28;20445;-80
2022/03/02 00:35:00;;;;;;;14.33;10.87;;;;;;;1.03;58.49;151634.09;5067555;28;20465;-79
2022/03/02 00:37:36;;;;;;;12.37;8.80;;;;;;;1.07;58.32;151644.41;5066797;28;20437;-79
2022/03/02 00:40:11;;;;;;;11.00;8.20;;;;;;;1.26;57.64;151690.66;5066348;28;21084;-80
2022/03/02 00:42:47;;;;;;;12.37;9.20;;;;;;;1.31;56.73;151704.78;5061641;28;20464;-79
2022/03/02 00:45:25;;;;;;;14.00;10.33;;;;;;;1.29;57.37;151698.38;5047578;28;20450;-79
2022/03/02 00:48:04;;;;;;;12.60;8.80;;;;;;;1.16;58.31;151666.25;5063838;28;20552;-80
2022/03/02 00:50:40;;;;;;;11.87;9.60;;;;;;;1.04;60.93;151636.69;5068712;28;20503;-79
2022/03/02 00:53:16;;;;;;;15.10;10.93;;;;;;;0.97;62.23;151618.72;5059357;28;20450;-79
2022/03/02 00:55:51;;;;;;;13.20;10.70;;;;;;;0.93;63.25;151607.13;5065147;28;20501;-80
2022/03/02 00:58:27;;;;;;;12.90;10.83;;;;;;;0.94;65.14;151611.03;5063759;28;20450;-79
2022/03/02 01:01:03;;;;;;;14.57;11.67;;;;;;;0.89;63.00;151598.19;5065748;28;20475;-80
2022/03/02 01:03:40;;;;;;;12.20;10.70;;;;;;;0.84;62.83;151584.06;5063226;28;20822;-80
2022/03/02 01:06:16;;;;;;;14.53;11.37;;;;;;;0.82;65.44;151580.16;5064070;28;21903;-79
2022/03/02 01:08:53;;;;;;;15.50;11.70;;;;;;;0.81;64.08;151577.63;5064505;28;20442;-79
2022/03/02 01:11:29;;;;;;;17.03;11.73;;;;;;;0.80;62.38;151573.75;5065316;28;20440;-80
2022/03/02 01:14:04;;;;;;;15.67;10.40;;;;;;;0.81;63.62;151577.63;5060569;28;20474;-80
2022/03/02 01:16:40;;;;;;;13.70;10.77;;;;;;;0.79;63.03;151571.22;5064988;28;20458;-80
2022/03/02 01:19:17;;;;;;;14.20;10.50;;;;;;;0.76;63.64;151564.81;5064382;28;20459;-80
2022/03/02 01:21:53;;;;;;;14.03;11.17;;;;;;;0.77;64.30;151567.34;5063283;28;20453;-80
2022/03/02 01:24:28;;;;;;;13.43;11.53;;;;;;;0.74;65.38;151558.38;5063773;28;20455;-80
2022/03/02 01:27:05;;;;;;;14.37;11.10;;;;;;;0.70;65.33;151549.38;5048129;28;20451;-80
2022/03/02 01:29:40;;;;;;;14.20;10.43;;;;;;;0.66;65.09;151537.84;5064224;28;20772;-80
2022/03/02 01:32:17;;;;;;;11.80;10.07;;;;;;;0.65;66.26;151535.25;5065021;28;20463;-79
2022/03/02 01:34:54;;;;;;;14.00;10.00;;;;;;;0.63;65.02;151531.41;5059625;28;20469;-80
2022/03/02 01:37:30;;;;;;;13.20;10.73;;;;;;;0.59;64.47;151521.13;5065883;28;20453;-79
2022/03/02 01:40:09;;;;;;;14.23;11.43;;;;;;;0.58;66.26;151518.59;5079447;28;20450;-80
2022/03/02 01:42:45;;;;;;;15.70;11.50;;;;;;;0.57;65.72;151517.28;5048571;28;20462;-80
2022/03/02 01:45:21;;;;;;;13.20;10.50;;;;;;;0.58;65.83;151519.81;5064063;28;20453;-80
2022/03/02 01:47:59;;;;;;;16.10;10.80;;;;;;;0.56;66.52;151513.41;5066097;28;20447;-80
2022/03/02 01:50:36;;;;;;;12.33;9.80;;;;;;;0.53;65.84;151505.75;5049976;28;20488;-80
2022/03/02 01:53:11;;;;;;;13.63;10.90;;;;;;;0.58;66.23;151518.59;5050322;28;20976;-80
2022/03/02 01:55:47;;;;;;;16.90;11.10;;;;;;;0.57;67.25;151516.00;5064175;28;20517;-80
2022/03/02 01:58:23;;;;;;;12.63;9.93;;;;;;;0.56;65.66;151513.41;5063821;28;20460;-79
2022/03/02 02:01:00;;;;;;;13.50;10.90;;;;;;;0.54;64.83;151508.28;5064331;28;20443;-79
2022/03/02 02:03:35;;;;;;;15.37;11.17;;;;;;;0.55;66.36;151512.16;5065181;28;20820;-80
2022/03/02 02:06:13;;;;;;;14.53;10.80;;;;;;;0.58;68.55;151519.81;5064879;28;20444;-80
2022/03/02 02:08:50;;;;;;;15.63;10.80;;;;;;;0.52;64.87;151503.16;5046191;28;21034;-79
2022/03/02 02:11:25;;;;;;;14.00;10.83;;;;;;;0.49;64.46;151495.44;5059676;28;20542;-80
2022/03/02 02:14:01;;;;;;;13.17;10.00;;;;;;;0.51;65.59;151500.56;5063144;28;20435;-79
2022/03/02 02:16:36;;;;;;;14.20;10.87;;;;;;;0.46;63.51;151489.03;5069017;28;20452;-79
2022/03/02 02:19:12;;;;;;;16.53;10.87;;;;;;;0.50;65.21;151498.03;5061258;28;20459;-79
2022/03/02 02:21:49;;;;;;;13.20;9.97;;;;;;;0.44;64.40;151482.63;5065497;28;20459;-79
2022/03/02 02:24:25;;;;;;;13.67;10.63;;;;;;;0.38;64.51;151467.19;5064313;28;20437;-80
2022/03/02 02:27:01;;;;;;;12.87;9.90;;;;;;;0.43;63.74;151480.03;5066332;28;20785;-80
2022/03/02 02:29:37;;;;;;;10.93;9.43;;;;;;;0.41;64.19;151476.22;5064630;28;20450;-80
2022/03/02 02:32:12;;;;;;;14.40;10.73;;;;;;;0.37;63.44;151464.66;5048856;28;20461;-80
2022/03/02 02:34:48;;;;;;;12.87;10.50;;;;;;;0.31;63.71;151450.53;5066324;28;20472;-79
2022/03/02 02:37:25;;;;;;;13.20;10.83;;;;;;;0.27;64.01;151440.25;5070179;28;20782;-80
2022/03/02 02:40:03;;;;;;;17.10;11.70;;;;;;;0.24;63.62;151432.53;5072803;28;20471;-80
2022/03/02 02:42:39;;;;;;;13.73;10.70;;;;;;;0.31;63.53;151449.25;5068907;28;20441;-80
2022/03/02 02:45:17;;;;;;;13.10;10.83;;;;;;;0.35;63.80;151459.50;5065169;28;20450;-80
2022/03/02 02:47:55;;;;;;;12.77;10.63;;;;;;;0.44;63.92;151483.91;5069586;28;20467;-80
2022/03/02 02:50:32;;;;;;;14.00;11.20;;;;;;;0.31;64.46;151450.53;5068294;28;20886;-79
2022/03/02 02:53:11;;;;;;;15.53;10.43;;;;;;;0.21;64.17;151423.59;5068939;28;20779;-79
2022/03/02 02:55:47;;;;;;;18.80;10.87;;;;;;;0.21;66.71;151423.59;5069264;28;20540;-80
2022/03/02 02:58:23;;;;;;;16.73;11.37;;;;;;;0.14;63.93;151406.88;5068239;28;20782;-79
2022/03/02 03:00:58;;;;;;;17.60;10.23;;;;;;;0.13;65.88;151404.34;5086090;28;20454;-80
2022/03/02 03:03:34;;;;;;;13.60;10.93;;;;;;;0.06;66.65;151385.06;5051842;28;21093;-79
2022/03/02 03:06:10;;;;;;;15.43;10.60;;;;;;;-0.04;67.23;151360.69;5047782;28;20433;-79
2022/03/02 03:08:47;;;;;;;14.17;10.83;;;;;;;-0.12;69.03;151341.44;5068874;28;20492;-79
2022/03/02 03:11:22;;;;;;;15.87;11.40;;;;;;;-0.16;67.56;151331.16;5067126;28;20462;-79
2022/03/02 03:13:58;;;;;;;13.07;10.47;;;;;;;-0.19;67.64;151323.50;5068737;28;20433;-80
2022/03/02 03:16:33;;;;;;;15.93;11.30;;;;;;;-0.24;68.46;151309.38;5049966;28;20481;-79
2022/03/02 03:19:09;;;;;;;12.90;11.10;;;;;;;-0.30;68.39;151295.28;5052050;28;20438;-80
2022/03/02 03:21:45;;;;;;;14.90;11.00;;;;;;;-0.38;67.85;151273.44;5066247;28;20456;-79
2022/03/02 03:24:22;;;;;;;14.97;11.57;;;;;;;-0.38;69.02;151274.75;5065166;28;20438;-80
2022/03/02 03:26:57;;;;;;;15.03;10.50;;;;;;;-0.43;68.10;151261.94;5079239;28;20970;-79
2022/03/02 03:29:33;;;;;;;15.03;11.30;;;;;;;-0.43;70.46;151260.63;5066726;28;20812;-79
2022/03/02 03:32:09;;;;;;;15.33;10.77;;;;;;;-0.47;69.22;151250.34;5049391;28;20810;-79
2022/03/02 03:34:44;;;;;;;15.43;10.77;;;;;;;-0.50;67.77;151243.94;5070338;28;20496;-78
2022/03/02 03:37:20;;;;;;;14.80;11.60;;;;;;;-0.52;69.68;151237.53;5067168;28;20982;-79
2022/03/02 03:39:57;;;;;;;17.27;11.50;;;;;;;-0.57;70.63;151226.00;5052036;28;20839;-79
2022/03/02 03:42:32;;;;;;;14.40;10.70;;;;;;;-0.58;69.82;151222.16;5066848;28;20460;-79
2022/03/02 03:45:09;;;;;;;14.60;11.87;;;;;;;-0.61;69.18;151217.00;5065420;28;20444;-79
2022/03/02 03:47:45;;;;;;;16.90;11.97;;;;;;;-0.62;69.34;151213.19;5064142;28;20951;-79
2022/03/02 03:50:20;;;;;;;15.33;11.83;;;;;;;-0.62;70.51;151213.19;5065502;28;20561;-79
2022/03/02 03:52:56;;;;;;;12.13;10.90;;;;;;;-0.63;70.36;151210.59;5050708;28;20463;-79
2022/03/02 03:55:33;;;;;;;16.77;12.23;;;;;;;-0.63;70.18;151210.59;5066023;28;20468;-79
2022/03/02 03:58:08;;;;;;;14.77;11.50;;;;;;;-0.67;69.24;151200.34;5064170;28;20484;-79
2022/03/02 04:00:44;;;;;;;15.63;11.30;;;;;;;-0.68;68.95;151197.78;5051842;28;20953;-79
2022/03/02 04:03:20;;;;;;;15.80;11.10;;;;;;;-0.71;69.58;151190.06;5064609;28;20442;-79
2022/03/02 04:05:55;;;;;;;16.53;11.80;;;;;;;-0.71;70.19;151190.06;5065974;28;20444;-79
2022/03/02 04:08:31;;;;;;;15.50;11.27;;;;;;;-0.71;69.96;151190.06;5066682;28;20440;-79
2022/03/02 04:11:08;;;;;;;19.47;11.60;;;;;;;-0.69;70.33;151195.25;5068000;28;20477;-79
2022/03/02 04:13:43;;;;;;;16.17;12.17;;;;;;;-0.68;70.70;151199.06;5065622;28;20445;-79
2022/03/02 04:16:19;;;;;;;16.30;11.60;;;;;;;-0.68;70.72;151197.78;5059559;28;20479;-80
2022/03/02 04:18:54;;;;;;;16.63;12.20;;;;;;;-0.73;69.74;151186.25;5060435;28;20453;-79
2022/03/02 04:21:30;;;;;;;18.50;11.50;;;;;;;-0.74;71.14;151182.38;5063921;28;20457;-79
2022/03/02 04:24:06;;;;;;;19.33;12.93;;;;;;;-0.77;71.63;151174.72;5049687;28;20469;-79
2022/03/02 04:26:43;;;;;;;16.63;11.80;;;;;;;-0.78;71.80;151172.13;5044106;28;21209;-79
2022/03/02 04:29:18;;;;;;;16.87;11.90;;;;;;;-0.82;71.26;151161.91;5067096;28;20450;-79
2022/03/02 04:31:54;;;;;;;15.40;11.97;;;;;;;-0.81;72.55;151165.72;5044281;28;20529;-79
2022/03/02 04:34:30;;;;;;;17.27;11.73;;;;;;;-0.86;73.03;151152.91;5081938;28;20452;-79
2022/03/02 04:37:05;;;;;;;15.13;11.50;;;;;;;-0.91;71.95;151138.78;5050498;28;20475;-79
2022/03/02 04:39:41;;;;;;;18.40;11.87;;;;;;;-0.97;73.16;151124.69;5068957;28;21564;-79
2022/03/02 04:42:18;;;;;;;18.20;12.27;;;;;;;-0.97;71.87;151123.41;5050315;28;20456;-79
2022/03/02 04:44:53;;;;;;;14.30;11.53;;;;;;;-1.01;71.86;151114.47;5065556;28;20441;-79
2022/03/02 04:47:29;;;;;;;17.73;12.40;;;;;;;-1.04;71.66;151105.47;5048275;28;20438;-79
2022/03/02 04:50:06;;;;;;;15.37;12.33;;;;;;;-1.05;72.81;151102.88;5065569;28;20471;-79
2022/03/02 04:52:42;;;;;;;15.23;11.60;;;;;;;-1.03;72.83;151108.06;5065700;28;20439;-79
2022/03/02 04:55:18;;;;;;;18.13;12.30;;;;;;;-1.04;73.30;151105.47;5063161;28;20476;-79
2022/03/02 04:57:57;;;;;;;15.73;11.90;;;;;;;-1.03;71.86;151108.06;5049831;28;20456;-79
2022/03/02 05:00:34;;;;;;;16.37;12.77;;;;;;;-1.06;71.64;151101.59;5066062;28;20894;-79
2022/03/02 05:03:09;;;;;;;15.37;12.57;;;;;;;-1.07;71.41;151099.06;5062922;28;20453;-79
2022/03/02 05:05:45;;;;;;;13.03;11.20;;;;;;;-1.01;71.07;151114.47;5066297;28;20841;-79
2022/03/02 05:08:21;;;;;;;18.70;13.40;;;;;;;-0.98;71.38;151120.88;5065692;28;20453;-79
2022/03/02 05:10:57;;;;;;;17.77;12.60;;;;;;;-1.01;71.04;151113.16;5063598;28;20446;-79
2022/03/02 05:13:36;;;;;;;17.00;12.77;;;;;;;-1.04;71.79;151105.47;5051039;28;20459;-79
2022/03/02 05:16:11;;;;;;;19.73;14.43;;;;;;;-1.08;73.89;151095.19;5065884;28;20470;-79
2022/03/02 05:18:47;;;;;;;17.70;12.97;;;;;;;-1.12;73.24;151084.97;5064666;28;20570;-79
2022/03/02 05:21:22;;;;;;;17.97;12.63;;;;;;;-1.16;74.06;151075.97;5063032;28;20478;-79
2022/03/02 05:23:58;;;;;;;17.70;12.27;;;;;;;-1.13;73.20;151082.38;5065224;28;20512;-79
2022/03/02 05:26:34;;;;;;;25.70;13.47;;;;;;;-1.16;73.99;151074.66;5047650;28;20451;-79
2022/03/02 05:29:11;;;;;;;22.40;13.70;;;;;;;-1.12;74.58;151086.25;5051270;28;20875;-79
2022/03/02 05:31:46;;;;;;;17.13;11.60;;;;;;;-1.14;75.36;151081.13;5063004;28;20452;-79
2022/03/02 05:34:22;;;;;;;19.43;12.40;;;;;;;-1.15;74.53;151078.56;5065107;28;20459;-79
2022/03/02 05:36:57;;;;;;;15.47;12.70;;;;;;;-1.14;73.68;151079.84;5059002;28;20821;-79
2022/03/02 05:39:33;;;;;;;16.73;12.70;;;;;;;-1.14;73.88;151079.84;5062899;28;20484;-79
2022/03/02 05:42:09;;;;;;;22.03;13.03;;;;;;;-1.14;76.06;151079.84;5056835;28;20475;-79
2022/03/02 05:44:46;;;;;;;20.20;12.87;;;;;;;-1.18;75.79;151069.56;5046100;28;20443;-79
2022/03/02 05:47:22;;;;;;;18.70;12.40;;;;;;;-1.22;76.40;151060.63;5060826;28;20451;-79
2022/03/02 05:49:58;;;;;;;17.90;12.43;;;;;;;-1.25;75.23;151054.22;5067821;28;20468;-79
2022/03/02 05:52:33;;;;;;;18.70;12.33;;;;;;;-1.26;75.72;151051.63;5044637;28;20504;-79
2022/03/02 05:55:09;;;;;;;19.03;13.87;;;;;;;-1.26;75.70;151051.63;5065626;28;20435;-79
2022/03/02 05:57:46;;;;;;;23.03;13.57;;;;;;;-1.24;76.57;151056.75;5046012;28;20458;-79
2022/03/02 06:00:24;;;;;;;18.03;13.30;;;;;;;-1.23;77.15;151059.34;5062991;28;20479;-78
2022/03/02 06:03:00;;;;;;;21.70;14.47;;;;;;;-1.19;76.76;151067.03;5049560;28;20544;-79
2022/03/02 06:05:36;;;;;;;16.87;13.33;;;;;;;-1.22;76.57;151061.88;5057802;28;20532;-78
2022/03/02 06:08:11;;;;;;;20.80;13.57;;;;;;;-1.23;77.67;151059.34;5061830;28;20451;-79
2022/03/02 06:10:48;;;;;;;15.03;11.93;;;;;;;-1.18;76.04;151069.56;5048474;28;20840;-79
2022/03/02 06:13:24;;;;;;;15.80;13.07;;;;;;;-1.16;76.56;151074.66;5064044;28;20550;-78
2022/03/02 06:16:02;;;;;;;19.10;13.87;;;;;;;-1.14;75.82;151081.13;5063981;28;20468;-79
2022/03/02 06:18:39;;;;;;;16.80;12.83;;;;;;;-1.11;75.42;151087.53;5062493;28;20871;-78
2022/03/02 06:21:17;;;;;;;17.70;13.27;;;;;;;-1.06;75.16;151100.34;5045550;28;20481;-78
2022/03/02 06:23:53;;;;;;;20.17;13.63;;;;;;;-0.99;76.72;151118.28;5063095;28;20770;-79
2022/03/02 06:26:29;;;;;;;16.47;13.10;;;;;;;-0.91;75.60;151138.78;5062844;28;20432;-80
2022/03/02 06:29:05;;;;;;;20.40;13.00;;;;;;;-0.84;75.56;151156.72;5059918;28;20928;-80
2022/03/02 06:31:42;;;;;;;20.93;13.30;;;;;;;-0.79;75.70;151169.56;5065411;28;20448;-80
2022/03/02 06:34:17;;;;;;;17.07;13.30;;;;;;;-0.74;76.75;151183.66;5065479;28;20959;-80
2022/03/02 06:36:53;;;;;;;17.50;12.70;;;;;;;-0.69;76.21;151195.25;5065206;28;20457;-80
2022/03/02 06:39:28;;;;;;;16.30;12.97;;;;;;;-0.65;75.29;151206.75;5064000;28;20452;-80
2022/03/02 06:42:11;;;;;;;22.43;14.37;;;;;;;-0.55;75.30;151229.81;5064757;28;20525;-80
2022/03/02 06:44:52;;;;;;;21.47;12.90;;;;;;;-0.48;75.76;151247.81;5064574;28;20806;-80
2022/03/02 06:47:33;;;;;;;18.37;12.70;;;;;;;-0.48;75.06;151247.81;5061485;28;20460;-80
2022/03/02 06:50:11;;;;;;;19.00;14.10;;;;;;;-0.46;75.74;151254.22;5050277;28;20481;-80
2022/03/02 06:52:46;;;;;;;18.20;12.07;;;;;;;-0.41;75.80;151265.75;5044283;28;20855;-80
2022/03/02 06:55:22;;;;;;;18.63;12.90;;;;;;;-0.37;74.07;151277.28;5023600;28;20454;-80
2022/03/02 06:58:00;;;;;;;19.10;14.40;;;;;;;-0.33;74.29;151287.56;5029133;28;20436;-80
2022/03/02 07:00:36;;;;;;;19.07;13.83;;;;;;;-0.25;73.91;151306.81;5042571;28;21096;-80
2022/03/02 07:03:17;;;;;;;17.20;12.83;;;;;;;-0.20;75.07;151319.63;5025922;28;20556;-80
2022/03/02 07:05:54;;;;;;;16.10;12.40;;;;;;;-0.20;73.99;151319.63;5023172;28;20443;-80
2022/03/02 07:08:31;;;;;;;18.67;14.00;;;;;;;-0.18;75.65;151326.03;5059394;28;20464;-80
2022/03/02 07:11:07;;;;;;;14.37;12.60;;;;;;;-0.13;74.13;151337.56;5043825;28;20443;-80
2022/03/02 07:13:45;;;;;;;18.50;13.57;;;;;;;-0.09;73.21;151349.16;5029578;28;20458;-80
2022/03/02 07:16:21;;;;;;;17.53;13.10;;;;;;;0.00;75.08;151372.22;5046920;28;21031;-80
2022/03/02 07:18:58;;;;;;;21.90;13.77;;;;;;;0.10;73.27;151395.34;5049011;28;20448;-80
2022/03/02 07:21:34;;;;;;;17.20;12.53;;;;;;;0.20;72.67;151422.28;5047874;28;20941;-80
2022/03/02 07:24:16;;;;;;;17.83;13.07;;;;;;;0.29;72.28;151444.13;5047018;28;20565;-80
2022/03/02 07:26:54;;;;;;;19.63;12.83;;;;;;;0.38;71.43;151467.19;5044697;28;20787;-80
2022/03/02 07:29:29;;;;;;;17.37;12.17;;;;;;;0.41;70.35;151476.22;5042477;28;20447;-80
2022/03/02 07:32:05;;;;;;;16.70;12.43;;;;;;;0.44;71.40;151482.63;5047963;28;20451;-79
2022/03/02 07:34:43;;;;;;;20.00;13.43;;;;;;;0.48;72.17;151494.16;5036447;28;21007;-79
2022/03/02 07:37:18;;;;;;;17.00;12.43;;;;;;;0.55;71.13;151510.88;5039440;28;20544;-80
2022/03/02 07:39:55;;;;;;;18.67;12.90;;;;;;;0.59;70.93;151522.41;5044248;28;20472;-80
2022/03/02 07:42:32;;;;;;;16.50;12.00;;;;;;;0.68;70.96;151544.25;5047122;28;20443;-80
2022/03/02 07:45:09;;;;;;;17.27;11.33;;;;;;;0.71;70.96;151550.66;5031946;28;20805;-79
2022/03/02 07:47:44;;;;;;;19.80;12.80;;;;;;;0.75;70.91;151562.22;5030760;28;20963;-80
2022/03/02 07:50:21;;;;;;;22.30;13.00;;;;;;;0.80;70.79;151575.03;5062446;28;20479;-80
2022/03/02 07:52:58;;;;;;;15.20;12.00;;;;;;;0.84;70.97;151585.34;5065173;28;20449;-80
2022/03/02 07:55:34;;;;;;;18.23;13.63;;;;;;;0.89;71.64;151598.19;5067470;28;20437;-80
2022/03/02 07:58:10;;;;;;;17.23;13.27;;;;;;;0.95;70.46;151612.31;5063475;28;20456;-79
2022/03/02 08:00:48;;;;;;;17.47;13.70;;;;;;;1.03;70.32;151632.88;5064774;28;20785;-78
2022/03/02 08:03:27;;;;;;;19.10;13.13;;;;;;;1.06;68.58;151641.81;5046825;28;20473;-78
2022/03/02 08:06:05;;;;;;;16.10;12.30;;;;;;;1.05;67.19;151639.28;5061455;28;20446;-79
2022/03/02 08:08:41;;;;;;;17.80;12.67;;;;;;;1.16;68.75;151666.25;5065033;28;20796;-79
2022/03/02 08:11:17;;;;;;;17.60;13.00;;;;;;;1.17;69.96;151668.78;5063045;28;20436;-79
2022/03/02 08:13:52;;;;;;;23.10;13.93;;;;;;;1.31;68.55;151704.78;5076115;28;20456;-79
2022/03/02 08:16:29;;;;;;;19.67;14.17;;;;;;;1.32;68.73;151706.06;5059189;28;20471;-79
2022/03/02 08:19:07;;;;;;;19.67;14.30;;;;;;;1.24;70.29;151686.81;5059243;28;20555;-80
2022/03/02 08:21:45;;;;;;;19.17;14.30;;;;;;;1.28;71.85;151695.78;5065341;28;20449;-78
2022/03/02 08:24:21;;;;;;;18.90;13.77;;;;;;;1.36;70.80;151717.63;5068605;28;20460;-79
2022/03/02 08:26:59;;;;;;;19.57;14.33;;;;;;;1.49;69.69;151749.72;5063202;28;20524;-79
2022/03/02 08:29:52;;;;;;;16.70;13.83;;;;;;;1.72;68.07;151810.13;5064161;28;20483;-80
2022/03/02 08:32:34;;;;;;;18.60;14.77;;;;;;;1.84;68.11;151839.72;5062089;28;20530;-79
2022/03/02 08:35:11;;;;;;;19.10;14.40;;;;;;;1.93;68.93;151862.88;5064616;28;20461;-80
2022/03/02 08:37:48;;;;;;;20.53;13.97;;;;;;;2.01;68.52;151883.44;5065292;28;20526;-80
2022/03/02 08:40:24;;;;;;;19.17;15.60;;;;;;;2.16;68.18;151921.97;5062323;28;20438;-80
2022/03/02 08:43:01;;;;;;;21.07;14.90;;;;;;;2.33;67.51;151964.44;5066612;28;20441;-81
2022/03/02 08:45:37;;;;;;;20.00;15.10;;;;;;;2.32;68.95;151961.84;5061862;28;20971;-79
2022/03/02 08:48:14;;;;;;;20.40;14.90;;;;;;;2.36;67.93;151973.41;5055521;28;20578;-80
2022/03/02 08:50:52;;;;;;;26.60;15.97;;;;;;;2.31;67.25;151960.53;5063095;28;20505;-80
2022/03/02 08:53:31;;;;;;;21.10;15.93;;;;;;;2.43;68.74;151990.13;5060733;28;20545;-79
2022/03/02 08:56:07;;;;;;;19.57;15.50;;;;;;;2.51;68.56;152009.41;5062878;28;20946;-80
2022/03/02 08:58:44;;;;;;;20.90;15.50;;;;;;;2.47;66.48;152001.69;5061788;28;20461;-80
2022/03/02 09:01:23;;;;;;;19.90;14.20;;;;;;;2.54;67.67;152017.16;5069619;28;20476;-80
2022/03/02 09:04:00;;;;;;;20.43;15.20;;;;;;;2.75;65.52;152071.16;5051497;28;20849;-80
2022/03/02 09:06:36;;;;;;;19.03;15.00;;;;;;;2.85;63.66;152096.88;5047129;28;20464;-79
2022/03/02 09:09:14;;;;;;;18.23;15.00;;;;;;;2.83;62.84;152091.75;5047268;28;20441;-80
2022/03/02 09:11:49;;;;;;;22.13;14.80;;;;;;;2.79;63.03;152081.44;5066159;28;20872;-80
2022/03/02 09:14:25;;;;;;;21.80;15.43;;;;;;;2.87;62.94;152102.00;5064014;28;20442;-79
2022/03/02 09:17:01;;;;;;;23.87;16.60;;;;;;;2.88;64.43;152105.91;5045939;28;21373;-82
2022/03/02 09:19:37;;;;;;;20.73;14.90;;;;;;;3.01;64.21;152138.06;5064294;28;20955;-81
2022/03/02 09:22:13;;;;;;;19.57;15.40;;;;;;;3.03;62.83;152143.19;5048618;28;20813;-81
2022/03/02 09:24:50;;;;;;;19.63;14.30;;;;;;;3.14;61.24;152170.22;5064010;28;20449;-80
2022/03/02 09:27:29;;;;;;;20.07;13.83;;;;;;;3.41;60.31;152241.00;5062344;28;20446;-82
2022/03/02 09:30:07;;;;;;;19.23;14.97;;;;;;;3.60;58.68;152288.66;5064353;28;20439;-80
2022/03/02 09:32:44;;;;;;;22.63;15.43;;;;;;;3.54;59.31;152273.19;5064264;28;20450;-80
2022/03/02 09:35:21;;;;;;;18.70;15.20;;;;;;;3.64;60.13;152298.91;5059762;28;20442;-81
2022/03/02 09:37:56;;;;;;;19.17;13.40;;;;;;;3.71;58.73;152316.91;5058687;28;20500;-81
2022/03/02 09:40:38;;;;;;;47.87;19.97;;;;;;;3.84;59.26;152349.16;5058362;28;20496;-82
2022/03/02 09:43:19;;;;;;;20.33;15.67;;;;;;;3.87;58.59;152356.81;5062796;28;20458;-81
2022/03/02 09:45:56;;;;;;;18.90;15.67;;;;;;;4.02;59.90;152395.50;5042542;28;20530;-81
2022/03/02 09:48:36;;;;;;;18.33;14.33;;;;;;;4.19;60.94;152439.25;5057346;28;20874;-80
2022/03/02 09:51:11;;;;;;;18.70;13.87;;;;;;;4.23;58.04;152449.59;5081587;28;20552;-80
2022/03/02 09:53:48;;;;;;;18.97;13.07;;;;;;;4.20;61.24;152441.84;5064865;28;20495;-81
2022/03/02 09:56:26;;;;;;;13.20;11.17;;;;;;;4.22;56.36;152447.00;5075200;28;20441;-81
2022/03/02 09:59:04;;;;;;;19.23;13.10;;;;;;;4.32;56.98;152472.75;5065689;28;20565;-81
2022/03/02 10:01:41;;;;;;;19.00;13.00;;;;;;;4.37;55.75;152484.38;5081210;28;20453;-81
2022/03/02 10:04:21;;;;;;;16.20;13.10;;;;;;;4.49;55.79;152516.56;5066194;28;20458;-81
2022/03/02 10:07:26;;;;;;;18.53;13.50;;;;;;;4.49;55.17;152516.56;5063455;28;20763;-81
2022/03/02 10:10:04;;;;;;;17.80;12.63;;;;;;;4.61;55.49;152547.47;5061505;28;20449;-81
2022/03/02 10:12:41;;;;;;;14.70;12.10;;;;;;;4.67;53.99;152562.94;5066366;28;20524;-81
2022/03/02 10:15:17;;;;;;;14.40;12.10;;;;;;;4.74;52.89;152580.97;5064212;28;20524;-81
2022/03/02 10:17:54;;;;;;;16.03;12.57;;;;;;;4.98;51.57;152640.28;5092382;28;20492;-81
2022/03/02 10:20:32;;;;;;;14.67;11.83;;;;;;;4.97;53.99;152638.97;5067799;28;20971;-81
2022/03/02 10:23:33;;;;;;;14.43;11.23;;;;;;;4.93;52.09;152629.94;5066774;28;20457;-81
2022/03/02 10:26:17;;;;;;;15.57;12.00;;;;;;;4.97;52.16;152638.97;5067116;28;20441;-81
2022/03/02 10:29:00;;;;;;;16.10;12.50;;;;;;;5.07;53.25;152664.75;5064279;28;20450;-81
2022/03/02 10:31:46;;;;;;;15.57;12.13;;;;;;;5.11;52.99;152675.03;5066389;28;20437;-81
2022/03/02 10:34:33;;;;;;;13.97;12.33;;;;;;;5.21;53.70;152699.56;5065794;28;20481;-81
2022/03/02 10:37:28;;;;;;;14.57;11.23;;;;;;;5.31;51.50;152726.63;5085474;28;20458;-81
2022/03/02 10:40:12;;;;;;;14.20;11.80;;;;;;;5.34;52.27;152733.06;5049482;28;20477;-81
2022/03/02 10:42:56;;;;;;;13.70;11.67;;;;;;;5.44;52.87;152758.84;5047823;28;20882;-81
2022/03/02 10:45:39;;;;;;;15.97;12.20;;;;;;;5.50;51.72;152775.63;5053470;28;20806;-81
2022/03/02 10:48:19;;;;;;;18.20;13.00;;;;;;;5.59;51.22;152797.50;5068507;28;20860;-81
2022/03/02 10:50:57;;;;;;;14.07;11.37;;;;;;;5.70;49.54;152825.88;5070410;28;20437;-81
2022/03/02 10:53:35;;;;;;;15.37;12.40;;;;;;;5.69;49.78;152822.03;5069597;28;20444;-81
2022/03/02 10:56:13;;;;;;;15.80;11.87;;;;;;;5.71;50.41;152827.19;5049875;28;20458;-82
2022/03/02 10:58:51;;;;;;;14.07;11.40;;;;;;;5.74;51.31;152836.22;5073310;28;20505;-82
2022/03/02 11:01:28;;;;;;;17.70;12.80;;;;;;;5.62;50.91;152805.25;5068681;28;20441;-82
2022/03/02 11:04:07;;;;;;;16.90;13.67;;;;;;;5.58;50.95;152794.97;5071663;28;20864;-82
2022/03/02 11:06:42;;;;;;;15.70;12.10;;;;;;;5.54;50.78;152784.63;5048618;28;20461;-81
2022/03/02 11:09:18;;;;;;;15.27;12.63;;;;;;;5.66;51.91;152815.59;5074862;28;20452;-81
2022/03/02 11:11:54;;;;;;;16.27;12.80;;;;;;;5.75;51.34;152837.47;5075143;28;20496;-82
2022/03/02 11:14:30;;;;;;;18.50;12.53;;;;;;;5.83;51.63;152859.41;5073069;28;20451;-81
2022/03/02 11:17:14;;;;;;;18.20;12.70;;;;;;;5.73;50.51;152833.63;5069168;28;20974;-81
2022/03/02 11:19:50;;;;;;;15.40;12.60;;;;;;;6.16;49.95;152942.03;5055241;28;20453;-81
2022/03/02 11:22:28;;;;;;;16.23;11.90;;;;;;;5.90;49.67;152876.25;5055875;28;20462;-82
2022/03/02 11:25:05;;;;;;;14.87;11.40;;;;;;;5.77;50.20;152843.94;5067083;28;20452;-81
2022/03/02 11:27:42;;;;;;;16.70;12.50;;;;;;;5.84;50.29;152862.00;5070241;28;20532;-82
2022/03/02 11:30:19;;;;;;;16.10;11.67;;;;;;;6.01;49.60;152905.88;5067156;28;20489;-81
2022/03/02 11:33:07;;;;;;;15.20;12.30;;;;;;;5.91;49.67;152878.81;5067632;28;20547;-81
2022/03/02 11:35:43;;;;;;;17.87;13.17;;;;;;;5.81;49.36;152854.28;5068873;28;20442;-81
2022/03/02 11:38:23;;;;;;;16.33;12.20;;;;;;;5.88;49.17;152872.34;5050300;28;22470;-82
2022/03/02 11:41:00;;;;;;;14.47;11.80;;;;;;;5.95;49.17;152890.44;5082915;28;20496;-82
2022/03/02 11:43:36;;;;;;;28.23;13.80;;;;;;;6.04;49.09;152913.63;5066220;28;20442;-82
2022/03/02 11:46:12;;;;;;;24.73;14.67;;;;;;;6.01;49.33;152904.66;5085506;28;20441;-82
2022/03/02 11:48:49;;;;;;;21.43;13.77;;;;;;;6.14;49.88;152939.44;5070866;28;20884;-81
2022/03/02 11:51:27;;;;;;;17.60;13.07;;;;;;;6.22;49.51;152957.53;5066880;28;20444;-81
2022/03/02 11:54:03;;;;;;;16.43;12.50;;;;;;;6.22;47.45;152958.81;5058606;28;20457;-81
2022/03/02 11:56:39;;;;;;;15.50;11.67;;;;;;;6.08;47.82;152922.69;5068058;28;20441;-81
2022/03/02 11:59:14;;;;;;;15.40;13.07;;;;;;;6.12;47.76;152934.28;5067198;28;21039;-82